Fv/la Perouse — FUJT — position and weather

sailwx.info

Track history (hours):
 
Tides and Currents Weather Stations Pressure Air Temp Water Temp Dewpoint Dewpoint Depression Visibility Wind Speed Wind Dir Waves Ship Positions

Fv/la Perouse

Last reported at 2018-Feb-23 10:29 UTC. Time now 2018-Feb-23 16:58 UTC.
Position N 51°27' W 007°49'.

Length 24 m; draft 4.1 m.

Type: Fishing. MMSI: 228174600.

Date/timePositionNaut miles runAvg speedWind from/ knotsBaromVisibWave heightAir tempDewpointWater temp
2018-Feb-23 10:29N 51°27' W 007°49'1 1.7
2018-Feb-23 10:01N 51°28' W 007°48'2 3.2
2018-Feb-23 09:30N 51°27' W 007°46'5 3.1
2018-Feb-23 07:47N 51°26' W 007°37'3 1.0
2018-Feb-23 04:30N 51°29' W 007°35'3 1.0
2018-Feb-23 01:12N 51°27' W 007°39'1 2.9
2018-Feb-23 01:00N 51°28' W 007°39'1 2.9
2018-Feb-23 00:30N 51°29' W 007°40'1 3.0
2018-Feb-23 00:00N 51°30' W 007°41'2 3.1
2018-Feb-22 23:31N 51°32' W 007°40'1 1.1
2018-Feb-22 22:22N 51°31' W 007°40'1 3.1
2018-Feb-22 22:00N 51°30' W 007°39'3 3.1
2018-Feb-22 20:58N 51°30' W 007°34'4 1.5
2018-Feb-22 18:39N 51°29' W 007°39'1 4.0
2018-Feb-22 18:29N 51°29' W 007°38'7 0.6
2018-Feb-22 07:35N 51°23' W 007°32'1 0.0
2018-Feb-21 05:02N 51°23' W 007°31'0 3.0
2018-Feb-21 04:58N 51°23' W 007°31'3 1.8
2018-Feb-21 03:01N 51°24' W 007°36'0 3.3
2018-Feb-21 02:59N 51°24' W 007°36'4 0.4
2018-Feb-20 17:33N 51°21' W 007°32'0 3.1
2018-Feb-20 17:30N 51°21' W 007°32'2 3.1
2018-Feb-20 17:00N 51°23' W 007°31'11 3.0
2018-Feb-20 13:14N 51°23' W 007°49'0 2.0
2018-Feb-20 12:59N 51°23' W 007°48'2 3.3
2018-Feb-20 12:19N 51°23' W 007°45'1 3.3
2018-Feb-20 11:58N 51°23' W 007°43'1 3.3
2018-Feb-20 11:31N 51°23' W 007°41'2 3.3
2018-Feb-20 10:59N 51°23' W 007°38'5 3.0
2018-Feb-20 09:15N 51°24' W 007°30'4 1.3
2018-Feb-20 05:53N 51°24' W 007°36'2 0.4
2018-Feb-20 00:42N 51°24' W 007°33'7 0.8
2018-Feb-19 16:05N 51°19' W 007°41'0 2.3
2018-Feb-19 16:00N 51°19' W 007°40'  
2018-Feb-16 18:38N 48°21' W 005°37'3 8.9
2018-Feb-16 18:16N 48°19' W 005°33'2 8.9
2018-Feb-16 18:00N 48°19' W 005°30'5 9.0
2018-Feb-16 17:30N 48°17' W 005°23'5 9.1
2018-Feb-16 17:00N 48°15' W 005°17'5 9.3
2018-Feb-16 16:29N 48°14' W 005°10'4 9.2
2018-Feb-16 16:01N 48°12' W 005°04'4 8.6
2018-Feb-16 15:30N 48°11' W 004°58'4 8.9
2018-Feb-16 15:00N 48°10' W 004°51'5 9.0
2018-Feb-16 14:30N 48°09' W 004°45'4 8.8
2018-Feb-16 14:01N 48°08' W 004°38'4 8.6
2018-Feb-16 13:30N 48°08' W 004°32'4 8.8
2018-Feb-16 13:01N 48°07' W 004°25'4 8.5
2018-Feb-16 12:31N 48°06' W 004°19'0 0.6
2018-Feb-16 11:59N 48°06' W 004°20'0 0.0
2018-Feb-16 11:30N 48°06' W 004°20'0 0.0
2018-Feb-16 11:01N 48°06' W 004°20'0 0.0
2018-Feb-16 10:30N 48°06' W 004°20'0 0.0
2018-Feb-16 10:00N 48°06' W 004°20'0 0.0
2018-Feb-16 09:28N 48°06' W 004°20'0 0.0
2018-Feb-16 09:00N 48°06' W 004°20'0 0.0
2018-Feb-16 08:30N 48°06' W 004°20'0 0.0
2018-Feb-16 08:00N 48°06' W 004°20'0 0.0
2018-Feb-16 07:30N 48°06' W 004°20'0 0.0
2018-Feb-16 07:00N 48°06' W 004°20'0 0.0
2018-Feb-16 06:30N 48°06' W 004°20'0 0.0
2018-Feb-16 06:00N 48°06' W 004°20'0 0.0
2018-Feb-16 05:29N 48°06' W 004°20'0 0.0
2018-Feb-16 05:00N 48°06' W 004°20'0 0.0
2018-Feb-16 04:31N 48°06' W 004°20'0 0.0
2018-Feb-16 04:00N 48°06' W 004°20'0 0.0
2018-Feb-16 03:30N 48°06' W 004°20'0 0.0
2018-Feb-16 03:01N 48°06' W 004°20'0 0.0
2018-Feb-16 02:30N 48°06' W 004°20'0 0.0
2018-Feb-16 02:00N 48°06' W 004°20'0 0.0
2018-Feb-16 01:30N 48°06' W 004°20'0 0.0
2018-Feb-16 01:00N 48°06' W 004°20'0 0.0
2018-Feb-16 00:30N 48°06' W 004°20'0 0.0
2018-Feb-16 00:00N 48°06' W 004°20'0 0.0
2018-Feb-15 23:29N 48°06' W 004°20'0 0.0
2018-Feb-15 23:00N 48°06' W 004°20'0 0.0
2018-Feb-15 22:30N 48°06' W 004°20'0 0.0
2018-Feb-15 21:58N 48°06' W 004°20'0 0.0
2018-Feb-15 21:29N 48°06' W 004°20'0 0.0
2018-Feb-15 21:00N 48°06' W 004°20'0 0.0
2018-Feb-15 20:30N 48°06' W 004°20'0 0.0
2018-Feb-15 19:58N 48°06' W 004°20'0 0.0
2018-Feb-15 19:30N 48°06' W 004°20'0 0.0
2018-Feb-15 19:00N 48°06' W 004°20'0 0.0
2018-Feb-15 18:31N 48°06' W 004°20'0 0.0
2018-Feb-15 18:00N 48°06' W 004°20'0 0.0
2018-Feb-15 17:29N 48°06' W 004°20'0 0.0
2018-Feb-15 17:00N 48°06' W 004°20'0 0.0
2018-Feb-15 16:30N 48°06' W 004°20'0 0.0
2018-Feb-15 15:59N 48°06' W 004°20'0 0.0
2018-Feb-15 15:23N 48°06' W 004°20'0 0.0
2018-Feb-15 14:59N 48°06' W 004°20'0 0.0
2018-Feb-15 14:30N 48°06' W 004°20'0 0.0
2018-Feb-15 13:52N 48°06' W 004°20'0 0.0
2018-Feb-15 13:23N 48°06' W 004°20'0 0.0
2018-Feb-15 13:00N 48°06' W 004°20'0 0.0
2018-Feb-15 12:30N 48°06' W 004°20'0 0.0
2018-Feb-15 12:00N 48°06' W 004°20'0 0.0
2018-Feb-15 11:29N 48°06' W 004°20'0 0.0
2018-Feb-15 11:00N 48°06' W 004°20'0 0.0
2018-Feb-15 10:30N 48°06' W 004°20'0 0.0
2018-Feb-15 10:00N 48°06' W 004°20'0 0.0
2018-Feb-15 09:29N 48°06' W 004°20'0 0.0
2018-Feb-15 08:59N 48°06' W 004°20'0 0.0
2018-Feb-15 08:30N 48°06' W 004°20'0 0.0
2018-Feb-15 07:59N 48°06' W 004°20'0 0.0
2018-Feb-15 07:28N 48°06' W 004°20'0 0.0
2018-Feb-15 06:58N 48°06' W 004°20'0 0.0
2018-Feb-15 06:30N 48°06' W 004°20'0 0.0
2018-Feb-15 06:00N 48°06' W 004°20'0 0.0
2018-Feb-15 05:29N 48°06' W 004°20'0 0.0
2018-Feb-15 05:00N 48°06' W 004°20'0 0.0
2018-Feb-15 04:31N 48°06' W 004°20'0 0.0
2018-Feb-15 03:57N 48°06' W 004°20'0 0.0
2018-Feb-15 03:30N 48°06' W 004°20'0 0.0
2018-Feb-15 02:59N 48°06' W 004°20'0 0.0
2018-Feb-15 02:29N 48°06' W 004°20'0 0.0
2018-Feb-15 02:00N 48°06' W 004°20'0 0.0
2018-Feb-15 01:30N 48°06' W 004°20'0 0.0
2018-Feb-15 01:00N 48°06' W 004°20'0 0.0
2018-Feb-15 00:25N 48°06' W 004°20'0 0.0
2018-Feb-14 23:58N 48°06' W 004°20'0 0.0
2018-Feb-14 23:31N 48°06' W 004°20'0 0.0
2018-Feb-14 23:00N 48°06' W 004°20'0 0.0
2018-Feb-14 22:28N 48°06' W 004°20'0 0.0
2018-Feb-14 21:59N 48°06' W 004°20'0 0.0
2018-Feb-14 21:30N 48°06' W 004°20'0 0.0
2018-Feb-14 20:58N 48°06' W 004°20'0 0.0
2018-Feb-14 20:30N 48°06' W 004°20'0 0.0
2018-Feb-14 20:00N 48°06' W 004°20'0 0.0
2018-Feb-14 19:30N 48°06' W 004°20'0 0.0
2018-Feb-14 18:57N 48°06' W 004°20'0 0.0
2018-Feb-14 18:30N 48°06' W 004°20'0 0.0
2018-Feb-14 17:59N 48°06' W 004°20'0 0.0
2018-Feb-14 17:31N 48°06' W 004°20'0 0.0
2018-Feb-14 17:00N 48°06' W 004°20'0 0.0
2018-Feb-14 16:26N 48°06' W 004°20'0 0.0
2018-Feb-14 16:00N 48°06' W 004°20'0 0.0
2018-Feb-14 15:30N 48°06' W 004°20'0 0.0
2018-Feb-14 15:00N 48°06' W 004°20'0 0.0
2018-Feb-14 14:24N 48°06' W 004°20'0 0.0
2018-Feb-14 13:56N 48°06' W 004°20'0 0.0
2018-Feb-14 13:29N 48°06' W 004°20'0 0.0
2018-Feb-14 12:59N 48°06' W 004°20'0 0.0
2018-Feb-14 12:30N 48°06' W 004°20'0 0.0
2018-Feb-14 12:00N 48°06' W 004°20'0 0.0
2018-Feb-14 11:28N 48°06' W 004°20'0 0.0
2018-Feb-14 10:59N 48°06' W 004°20'0 0.0
2018-Feb-14 10:30N 48°06' W 004°20'0 0.0
2018-Feb-14 10:00N 48°06' W 004°20'0 0.0
2018-Feb-14 09:30N 48°06' W 004°20'0 0.0
2018-Feb-14 08:58N 48°06' W 004°20'0 0.0
2018-Feb-14 08:29N 48°06' W 004°20'0 0.0
2018-Feb-14 08:00N 48°06' W 004°20'0 0.0
2018-Feb-14 07:26N 48°06' W 004°20'0 0.0
2018-Feb-14 07:00N 48°06' W 004°20'0 0.0
2018-Feb-14 06:30N 48°06' W 004°20'0 0.0
2018-Feb-14 05:55N 48°06' W 004°20'0 0.0
2018-Feb-14 05:30N 48°06' W 004°20'0 0.0
2018-Feb-14 04:57N 48°06' W 004°20'0 0.0
2018-Feb-14 04:30N 48°06' W 004°20'0 0.0
2018-Feb-14 04:00N 48°06' W 004°20'0 0.0
2018-Feb-14 03:29N 48°06' W 004°20'0 0.0
2018-Feb-14 03:00N 48°06' W 004°20'0 0.0
2018-Feb-14 02:30N 48°06' W 004°20'0 0.0
2018-Feb-14 02:00N 48°06' W 004°20'0 0.0
2018-Feb-14 01:26N 48°06' W 004°20'0 0.0
2018-Feb-14 01:00N 48°06' W 004°20'0 0.0
2018-Feb-14 00:31N 48°06' W 004°20'0 0.0
2018-Feb-13 23:53N 48°06' W 004°20'0 0.0
2018-Feb-13 23:27N 48°06' W 004°20'0 0.0
2018-Feb-13 23:00N 48°06' W 004°20'0 0.0
2018-Feb-13 22:30N 48°06' W 004°20'0 0.0
2018-Feb-13 21:59N 48°06' W 004°20'0 0.0
2018-Feb-13 21:30N 48°06' W 004°20'0 0.0
2018-Feb-13 21:00N 48°06' W 004°20'0 0.0
2018-Feb-13 20:30N 48°06' W 004°20'0 0.0
2018-Feb-13 19:59N 48°06' W 004°20'0 0.0
2018-Feb-13 19:29N 48°06' W 004°20'0 0.0
2018-Feb-13 19:01N 48°06' W 004°20'0 0.0
2018-Feb-13 18:30N 48°06' W 004°20'0 0.0
2018-Feb-13 18:00N 48°06' W 004°20'0 0.0
2018-Feb-13 17:28N 48°06' W 004°20'0 0.0
2018-Feb-13 16:58N 48°06' W 004°20'0 0.0
2018-Feb-13 16:30N 48°06' W 004°20'0 0.0
2018-Feb-13 16:00N 48°06' W 004°20'0 0.0
2018-Feb-13 15:30N 48°06' W 004°20'0 0.0
2018-Feb-13 15:00N 48°06' W 004°20'0 0.0
2018-Feb-13 14:30N 48°06' W 004°20'0 0.0
2018-Feb-13 13:59N 48°06' W 004°20'0 0.0
2018-Feb-13 13:30N 48°06' W 004°20'0 0.0
2018-Feb-13 13:00N 48°06' W 004°20'0 0.0
2018-Feb-13 12:30N 48°06' W 004°20'0 0.0
2018-Feb-13 11:59N 48°06' W 004°20'0 0.0
2018-Feb-13 11:30N 48°06' W 004°20'0 0.2
2018-Feb-13 11:01N 48°06' W 004°19'0 0.0
2018-Feb-13 10:30N 48°06' W 004°19'  
Track history (hours):
 
Tides and Currents Weather Stations Pressure Air Temp Water Temp Dewpoint Dewpoint Depression Visibility Wind Speed Wind Dir Waves Ship Positions

Fv/la Perouse

Last reported at 2018-Feb-23 10:29 UTC. Time now 2018-Feb-23 16:58 UTC.
Position N 51°27' W 007°49'.

Length 24 m; draft 4.1 m.

Type: Fishing. MMSI: 228174600.

Date/timePositionNaut miles runAvg speedWind from/ knotsBaromVisibWave heightAir tempDewpointWater temp
2018-Feb-23 10:29N 51°27' W 007°49'1 1.7
2018-Feb-23 10:01N 51°28' W 007°48'2 3.2
2018-Feb-23 09:30N 51°27' W 007°46'5 3.1
2018-Feb-23 07:47N 51°26' W 007°37'3 1.0
2018-Feb-23 04:30N 51°29' W 007°35'3 1.0
2018-Feb-23 01:12N 51°27' W 007°39'1 2.9
2018-Feb-23 01:00N 51°28' W 007°39'1 2.9
2018-Feb-23 00:30N 51°29' W 007°40'1 3.0
2018-Feb-23 00:00N 51°30' W 007°41'2 3.1
2018-Feb-22 23:31N 51°32' W 007°40'1 1.1
2018-Feb-22 22:22N 51°31' W 007°40'1 3.1
2018-Feb-22 22:00N 51°30' W 007°39'3 3.1
2018-Feb-22 20:58N 51°30' W 007°34'4 1.5
2018-Feb-22 18:39N 51°29' W 007°39'1 4.0
2018-Feb-22 18:29N 51°29' W 007°38'7 0.6
2018-Feb-22 07:35N 51°23' W 007°32'1 0.0
2018-Feb-21 05:02N 51°23' W 007°31'0 3.0
2018-Feb-21 04:58N 51°23' W 007°31'3 1.8
2018-Feb-21 03:01N 51°24' W 007°36'0 3.3
2018-Feb-21 02:59N 51°24' W 007°36'4 0.4
2018-Feb-20 17:33N 51°21' W 007°32'0 3.1
2018-Feb-20 17:30N 51°21' W 007°32'2 3.1
2018-Feb-20 17:00N 51°23' W 007°31'11 3.0
2018-Feb-20 13:14N 51°23' W 007°49'0 2.0
2018-Feb-20 12:59N 51°23' W 007°48'2 3.3
2018-Feb-20 12:19N 51°23' W 007°45'1 3.3
2018-Feb-20 11:58N 51°23' W 007°43'1 3.3
2018-Feb-20 11:31N 51°23' W 007°41'2 3.3
2018-Feb-20 10:59N 51°23' W 007°38'5 3.0
2018-Feb-20 09:15N 51°24' W 007°30'4 1.3
2018-Feb-20 05:53N 51°24' W 007°36'2 0.4
2018-Feb-20 00:42N 51°24' W 007°33'7 0.8
2018-Feb-19 16:05N 51°19' W 007°41'0 2.3
2018-Feb-19 16:00N 51°19' W 007°40'  
2018-Feb-16 18:38N 48°21' W 005°37'3 8.9
2018-Feb-16 18:16N 48°19' W 005°33'2 8.9
2018-Feb-16 18:00N 48°19' W 005°30'5 9.0
2018-Feb-16 17:30N 48°17' W 005°23'5 9.1
2018-Feb-16 17:00N 48°15' W 005°17'5 9.3
2018-Feb-16 16:29N 48°14' W 005°10'4 9.2
2018-Feb-16 16:01N 48°12' W 005°04'4 8.6
2018-Feb-16 15:30N 48°11' W 004°58'4 8.9
2018-Feb-16 15:00N 48°10' W 004°51'5 9.0
2018-Feb-16 14:30N 48°09' W 004°45'4 8.8
2018-Feb-16 14:01N 48°08' W 004°38'4 8.6
2018-Feb-16 13:30N 48°08' W 004°32'4 8.8
2018-Feb-16 13:01N 48°07' W 004°25'4 8.5
2018-Feb-16 12:31N 48°06' W 004°19'0 0.6
2018-Feb-16 11:59N 48°06' W 004°20'0 0.0
2018-Feb-16 11:30N 48°06' W 004°20'0 0.0
2018-Feb-16 11:01N 48°06' W 004°20'0 0.0
2018-Feb-16 10:30N 48°06' W 004°20'0 0.0
2018-Feb-16 10:00N 48°06' W 004°20'0 0.0
2018-Feb-16 09:28N 48°06' W 004°20'0 0.0
2018-Feb-16 09:00N 48°06' W 004°20'0 0.0
2018-Feb-16 08:30N 48°06' W 004°20'0 0.0
2018-Feb-16 08:00N 48°06' W 004°20'0 0.0
2018-Feb-16 07:30N 48°06' W 004°20'0 0.0
2018-Feb-16 07:00N 48°06' W 004°20'0 0.0
2018-Feb-16 06:30N 48°06' W 004°20'0 0.0
2018-Feb-16 06:00N 48°06' W 004°20'0 0.0
2018-Feb-16 05:29N 48°06' W 004°20'0 0.0
2018-Feb-16 05:00N 48°06' W 004°20'0 0.0
2018-Feb-16 04:31N 48°06' W 004°20'0 0.0
2018-Feb-16 04:00N 48°06' W 004°20'0 0.0
2018-Feb-16 03:30N 48°06' W 004°20'0 0.0
2018-Feb-16 03:01N 48°06' W 004°20'0 0.0
2018-Feb-16 02:30N 48°06' W 004°20'0 0.0
2018-Feb-16 02:00N 48°06' W 004°20'0 0.0
2018-Feb-16 01:30N 48°06' W 004°20'0 0.0
2018-Feb-16 01:00N 48°06' W 004°20'0 0.0
2018-Feb-16 00:30N 48°06' W 004°20'0 0.0
2018-Feb-16 00:00N 48°06' W 004°20'0 0.0
2018-Feb-15 23:29N 48°06' W 004°20'0 0.0
2018-Feb-15 23:00N 48°06' W 004°20'0 0.0
2018-Feb-15 22:30N 48°06' W 004°20'0 0.0
2018-Feb-15 21:58N 48°06' W 004°20'0 0.0
2018-Feb-15 21:29N 48°06' W 004°20'0 0.0
2018-Feb-15 21:00N 48°06' W 004°20'0 0.0
2018-Feb-15 20:30N 48°06' W 004°20'0 0.0
2018-Feb-15 19:58N 48°06' W 004°20'0 0.0
2018-Feb-15 19:30N 48°06' W 004°20'0 0.0
2018-Feb-15 19:00N 48°06' W 004°20'0 0.0
2018-Feb-15 18:31N 48°06' W 004°20'0 0.0
2018-Feb-15 18:00N 48°06' W 004°20'0 0.0
2018-Feb-15 17:29N 48°06' W 004°20'0 0.0
2018-Feb-15 17:00N 48°06' W 004°20'0 0.0
2018-Feb-15 16:30N 48°06' W 004°20'0 0.0
2018-Feb-15 15:59N 48°06' W 004°20'0 0.0
2018-Feb-15 15:23N 48°06' W 004°20'0 0.0
2018-Feb-15 14:59N 48°06' W 004°20'0 0.0
2018-Feb-15 14:30N 48°06' W 004°20'0 0.0
2018-Feb-15 13:52N 48°06' W 004°20'0 0.0
2018-Feb-15 13:23N 48°06' W 004°20'0 0.0
2018-Feb-15 13:00N 48°06' W 004°20'0 0.0
2018-Feb-15 12:30N 48°06' W 004°20'0 0.0
2018-Feb-15 12:00N 48°06' W 004°20'0 0.0
2018-Feb-15 11:29N 48°06' W 004°20'0 0.0
2018-Feb-15 11:00N 48°06' W 004°20'0 0.0
2018-Feb-15 10:30N 48°06' W 004°20'0 0.0
2018-Feb-15 10:00N 48°06' W 004°20'0 0.0
2018-Feb-15 09:29N 48°06' W 004°20'0 0.0
2018-Feb-15 08:59N 48°06' W 004°20'0 0.0
2018-Feb-15 08:30N 48°06' W 004°20'0 0.0
2018-Feb-15 07:59N 48°06' W 004°20'0 0.0
2018-Feb-15 07:28N 48°06' W 004°20'0 0.0
2018-Feb-15 06:58N 48°06' W 004°20'0 0.0
2018-Feb-15 06:30N 48°06' W 004°20'0 0.0
2018-Feb-15 06:00N 48°06' W 004°20'0 0.0
2018-Feb-15 05:29N 48°06' W 004°20'0 0.0
2018-Feb-15 05:00N 48°06' W 004°20'0 0.0
2018-Feb-15 04:31N 48°06' W 004°20'0 0.0
2018-Feb-15 03:57N 48°06' W 004°20'0 0.0
2018-Feb-15 03:30N 48°06' W 004°20'0 0.0
2018-Feb-15 02:59N 48°06' W 004°20'0 0.0
2018-Feb-15 02:29N 48°06' W 004°20'0 0.0
2018-Feb-15 02:00N 48°06' W 004°20'0 0.0
2018-Feb-15 01:30N 48°06' W 004°20'0 0.0
2018-Feb-15 01:00N 48°06' W 004°20'0 0.0
2018-Feb-15 00:25N 48°06' W 004°20'0 0.0
2018-Feb-14 23:58N 48°06' W 004°20'0 0.0
2018-Feb-14 23:31N 48°06' W 004°20'0 0.0
2018-Feb-14 23:00N 48°06' W 004°20'0 0.0
2018-Feb-14 22:28N 48°06' W 004°20'0 0.0
2018-Feb-14 21:59N 48°06' W 004°20'0 0.0
2018-Feb-14 21:30N 48°06' W 004°20'0 0.0
2018-Feb-14 20:58N 48°06' W 004°20'0 0.0
2018-Feb-14 20:30N 48°06' W 004°20'0 0.0
2018-Feb-14 20:00N 48°06' W 004°20'0 0.0
2018-Feb-14 19:30N 48°06' W 004°20'0 0.0
2018-Feb-14 18:57N 48°06' W 004°20'0 0.0
2018-Feb-14 18:30N 48°06' W 004°20'0 0.0
2018-Feb-14 17:59N 48°06' W 004°20'0 0.0
2018-Feb-14 17:31N 48°06' W 004°20'0 0.0
2018-Feb-14 17:00N 48°06' W 004°20'0 0.0
2018-Feb-14 16:26N 48°06' W 004°20'0 0.0
2018-Feb-14 16:00N 48°06' W 004°20'0 0.0
2018-Feb-14 15:30N 48°06' W 004°20'0 0.0
2018-Feb-14 15:00N 48°06' W 004°20'0 0.0
2018-Feb-14 14:24N 48°06' W 004°20'0 0.0
2018-Feb-14 13:56N 48°06' W 004°20'0 0.0
2018-Feb-14 13:29N 48°06' W 004°20'0 0.0
2018-Feb-14 12:59N 48°06' W 004°20'0 0.0
2018-Feb-14 12:30N 48°06' W 004°20'0 0.0
2018-Feb-14 12:00N 48°06' W 004°20'0 0.0
2018-Feb-14 11:28N 48°06' W 004°20'0 0.0
2018-Feb-14 10:59N 48°06' W 004°20'0 0.0
2018-Feb-14 10:30N 48°06' W 004°20'0 0.0
2018-Feb-14 10:00N 48°06' W 004°20'0 0.0
2018-Feb-14 09:30N 48°06' W 004°20'0 0.0
2018-Feb-14 08:58N 48°06' W 004°20'0 0.0
2018-Feb-14 08:29N 48°06' W 004°20'0 0.0
2018-Feb-14 08:00N 48°06' W 004°20'0 0.0
2018-Feb-14 07:26N 48°06' W 004°20'0 0.0
2018-Feb-14 07:00N 48°06' W 004°20'0 0.0
2018-Feb-14 06:30N 48°06' W 004°20'0 0.0
2018-Feb-14 05:55N 48°06' W 004°20'0 0.0
2018-Feb-14 05:30N 48°06' W 004°20'0 0.0
2018-Feb-14 04:57N 48°06' W 004°20'0 0.0
2018-Feb-14 04:30N 48°06' W 004°20'0 0.0
2018-Feb-14 04:00N 48°06' W 004°20'0 0.0
2018-Feb-14 03:29N 48°06' W 004°20'0 0.0
2018-Feb-14 03:00N 48°06' W 004°20'0 0.0
2018-Feb-14 02:30N 48°06' W 004°20'0 0.0
2018-Feb-14 02:00N 48°06' W 004°20'0 0.0
2018-Feb-14 01:26N 48°06' W 004°20'0 0.0
2018-Feb-14 01:00N 48°06' W 004°20'0 0.0
2018-Feb-14 00:31N 48°06' W 004°20'0 0.0
2018-Feb-13 23:53N 48°06' W 004°20'0 0.0
2018-Feb-13 23:27N 48°06' W 004°20'0 0.0
2018-Feb-13 23:00N 48°06' W 004°20'0 0.0
2018-Feb-13 22:30N 48°06' W 004°20'0 0.0
2018-Feb-13 21:59N 48°06' W 004°20'0 0.0
2018-Feb-13 21:30N 48°06' W 004°20'0 0.0
2018-Feb-13 21:00N 48°06' W 004°20'0 0.0
2018-Feb-13 20:30N 48°06' W 004°20'0 0.0
2018-Feb-13 19:59N 48°06' W 004°20'0 0.0
2018-Feb-13 19:29N 48°06' W 004°20'0 0.0
2018-Feb-13 19:01N 48°06' W 004°20'0 0.0
2018-Feb-13 18:30N 48°06' W 004°20'0 0.0
2018-Feb-13 18:00N 48°06' W 004°20'0 0.0
2018-Feb-13 17:28N 48°06' W 004°20'0 0.0
2018-Feb-13 16:58N 48°06' W 004°20'0 0.0
2018-Feb-13 16:30N 48°06' W 004°20'0 0.0
2018-Feb-13 16:00N 48°06' W 004°20'0 0.0
2018-Feb-13 15:30N 48°06' W 004°20'0 0.0
2018-Feb-13 15:00N 48°06' W 004°20'0 0.0
2018-Feb-13 14:30N 48°06' W 004°20'0 0.0
2018-Feb-13 13:59N 48°06' W 004°20'0 0.0
2018-Feb-13 13:30N 48°06' W 004°20'0 0.0
2018-Feb-13 13:00N 48°06' W 004°20'0 0.0
2018-Feb-13 12:30N 48°06' W 004°20'0 0.0
2018-Feb-13 11:59N 48°06' W 004°20'0 0.0
2018-Feb-13 11:30N 48°06' W 004°20'0 0.2
2018-Feb-13 11:01N 48°06' W 004°19'0 0.0
2018-Feb-13 10:30N 48°06' W 004°19'  

Dump ship's entire track history